sensor_id;sensor_type;location;lat;lon;timestamp;P1;durP1;ratioP1;P2;durP2;ratioP2
64018;SDS011;66942;52.138;5.216;2024-01-27T00:01:53;21.8;;;7.2;;
64018;SDS011;66942;52.138;5.216;2024-01-27T00:03:34;20.41;;;7.0;;
64018;SDS011;66942;52.138;5.216;2024-01-27T00:05:10;19.5;;;6.7;;
64018;SDS011;66942;52.138;5.216;2024-01-27T00:08:22;18.3;;;6.8;;
64018;SDS011;66942;52.138;5.216;2024-01-27T00:09:58;16.2;;;6.7;;
64018;SDS011;66942;52.138;5.216;2024-01-27T00:11:34;19.7;;;6.8;;
64018;SDS011;66942;52.138;5.216;2024-01-27T00:14:47;16.2;;;6.1;;
64018;SDS011;66942;52.138;5.216;2024-01-27T00:16:23;21.3;;;6.6;;
64018;SDS011;66942;52.138;5.216;2024-01-27T00:17:59;26.0;;;6.8;;
64018;SDS011;66942;52.138;5.216;2024-01-27T00:19:35;20.6;;;6.4;;
64018;SDS011;66942;52.138;5.216;2024-01-27T00:22:47;18.5;;;5.9;;
64018;SDS011;66942;52.138;5.216;2024-01-27T00:24:23;27.2;;;6.9;;
64018;SDS011;66942;52.138;5.216;2024-01-27T00:26:00;23.5;;;7.4;;
64018;SDS011;66942;52.138;5.216;2024-01-27T00:29:12;19.91;;;6.8;;
64018;SDS011;66942;52.138;5.216;2024-01-27T00:30:48;22.1;;;6.8;;
64018;SDS011;66942;52.138;5.216;2024-01-27T00:32:24;22.1;;;6.8;;
64018;SDS011;66942;52.138;5.216;2024-01-27T00:35:36;21.6;;;6.5;;
64018;SDS011;66942;52.138;5.216;2024-01-27T00:37:12;16.7;;;6.4;;
64018;SDS011;66942;52.138;5.216;2024-01-27T00:38:48;22.0;;;6.7;;
64018;SDS011;66942;52.138;5.216;2024-01-27T00:42:01;18.7;;;6.1;;
64018;SDS011;66942;52.138;5.216;2024-01-27T00:43:37;16.2;;;6.4;;
64018;SDS011;66942;52.138;5.216;2024-01-27T00:45:13;19.2;;;6.0;;
64018;SDS011;66942;52.138;5.216;2024-01-27T00:46:49;21.8;;;6.1;;
64018;SDS011;66942;52.138;5.216;2024-01-27T00:50:01;19.91;;;6.5;;
64018;SDS011;66942;52.138;5.216;2024-01-27T00:51:37;18.7;;;6.2;;
64018;SDS011;66942;52.138;5.216;2024-01-27T00:53:13;19.41;;;6.0;;
64018;SDS011;66942;52.138;5.216;2024-01-27T00:56:26;18.91;;;7.2;;
64018;SDS011;66942;52.138;5.216;2024-01-27T00:58:02;18.7;;;6.7;;
64018;SDS011;66942;52.138;5.216;2024-01-27T00:59:38;18.8;;;7.1;;
64018;SDS011;66942;52.138;5.216;2024-01-27T01:02:50;21.5;;;6.8;;
64018;SDS011;66942;52.138;5.216;2024-01-27T01:04:26;15.3;;;6.1;;
64018;SDS011;66942;52.138;5.216;2024-01-27T01:06:02;20.5;;;6.4;;
64018;SDS011;66942;52.138;5.216;2024-01-27T01:07:39;18.91;;;6.3;;
64018;SDS011;66942;52.138;5.216;2024-01-27T01:10:51;17.7;;;6.2;;
64018;SDS011;66942;52.138;5.216;2024-01-27T01:12:27;20.9;;;6.6;;
64018;SDS011;66942;52.138;5.216;2024-01-27T01:14:03;17.8;;;6.1;;
64018;SDS011;66942;52.138;5.216;2024-01-27T01:17:15;20.2;;;6.5;;
64018;SDS011;66942;52.138;5.216;2024-01-27T01:18:51;18.7;;;6.5;;
64018;SDS011;66942;52.138;5.216;2024-01-27T01:20:27;19.2;;;5.7;;
64018;SDS011;66942;52.138;5.216;2024-01-27T01:23:40;16.3;;;5.4;;
64018;SDS011;66942;52.138;5.216;2024-01-27T01:25:16;23.0;;;6.2;;
64018;SDS011;66942;52.138;5.216;2024-01-27T01:26:52;18.0;;;5.6;;
64018;SDS011;66942;52.138;5.216;2024-01-27T01:30:04;14.7;;;5.4;;
64018;SDS011;66942;52.138;5.216;2024-01-27T01:31:41;14.6;;;5.9;;
64018;SDS011;66942;52.138;5.216;2024-01-27T01:33:17;17.91;;;5.7;;
64018;SDS011;66942;52.138;5.216;2024-01-27T01:34:53;12.0;;;5.3;;
64018;SDS011;66942;52.138;5.216;2024-01-27T01:38:06;13.8;;;5.5;;
64018;SDS011;66942;52.138;5.216;2024-01-27T01:39:42;16.4;;;5.8;;
64018;SDS011;66942;52.138;5.216;2024-01-27T01:41:18;19.8;;;6.0;;
64018;SDS011;66942;52.138;5.216;2024-01-27T01:44:30;19.8;;;6.0;;
64018;SDS011;66942;52.138;5.216;2024-01-27T01:46:06;11.5;;;5.0;;
64018;SDS011;66942;52.138;5.216;2024-01-27T01:47:44;19.0;;;5.9;;
64018;SDS011;66942;52.138;5.216;2024-01-27T01:50:56;16.8;;;5.6;;
64018;SDS011;66942;52.138;5.216;2024-01-27T01:52:33;18.2;;;5.6;;
64018;SDS011;66942;52.138;5.216;2024-01-27T01:54:09;18.61;;;5.5;;
64018;SDS011;66942;52.138;5.216;2024-01-27T01:55:46;17.8;;;5.5;;
64018;SDS011;66942;52.138;5.216;2024-01-27T01:58:58;17.8;;;5.5;;
64018;SDS011;66942;52.138;5.216;2024-01-27T02:00:34;18.7;;;5.8;;
64018;SDS011;66942;52.138;5.216;2024-01-27T02:02:11;18.8;;;5.9;;
64018;SDS011;66942;52.138;5.216;2024-01-27T02:05:28;17.2;;;6.3;;
64018;SDS011;66942;52.138;5.216;2024-01-27T02:07:04;19.2;;;6.1;;
64018;SDS011;66942;52.138;5.216;2024-01-27T02:08:43;18.3;;;6.3;;
64018;SDS011;66942;52.138;5.216;2024-01-27T02:11:55;13.5;;;5.11;;
64018;SDS011;66942;52.138;5.216;2024-01-27T02:13:31;21.8;;;6.9;;
64018;SDS011;66942;52.138;5.216;2024-01-27T02:15:09;16.3;;;6.2;;
64018;SDS011;66942;52.138;5.216;2024-01-27T02:16:46;15.0;;;5.2;;
64018;SDS011;66942;52.138;5.216;2024-01-27T02:19:58;24.0;;;6.8;;
64018;SDS011;66942;52.138;5.216;2024-01-27T02:21:34;14.9;;;5.6;;
64018;SDS011;66942;52.138;5.216;2024-01-27T02:23:10;18.61;;;6.5;;
64018;SDS011;66942;52.138;5.216;2024-01-27T02:26:22;14.5;;;5.3;;
64018;SDS011;66942;52.138;5.216;2024-01-27T02:27:59;17.61;;;6.2;;
64018;SDS011;66942;52.138;5.216;2024-01-27T02:29:35;21.7;;;6.5;;
64018;SDS011;66942;52.138;5.216;2024-01-27T02:32:50;16.4;;;5.9;;
64018;SDS011;66942;52.138;5.216;2024-01-27T02:34:27;14.4;;;5.2;;
64018;SDS011;66942;52.138;5.216;2024-01-27T02:36:03;17.5;;;6.0;;
64018;SDS011;66942;52.138;5.216;2024-01-27T02:37:39;14.2;;;5.4;;
64018;SDS011;66942;52.138;5.216;2024-01-27T02:40:52;11.2;;;5.11;;
64018;SDS011;66942;52.138;5.216;2024-01-27T02:42:28;16.9;;;5.6;;
64018;SDS011;66942;52.138;5.216;2024-01-27T02:44:04;16.9;;;6.1;;
64018;SDS011;66942;52.138;5.216;2024-01-27T02:47:16;16.9;;;6.1;;
64018;SDS011;66942;52.138;5.216;2024-01-27T02:48:52;13.6;;;5.11;;
64018;SDS011;66942;52.138;5.216;2024-01-27T02:50:28;14.4;;;5.6;;
64018;SDS011;66942;52.138;5.216;2024-01-27T02:53:41;18.5;;;5.8;;
64018;SDS011;66942;52.138;5.216;2024-01-27T02:55:17;20.2;;;6.3;;
64018;SDS011;66942;52.138;5.216;2024-01-27T02:56:53;22.2;;;6.1;;
64018;SDS011;66942;52.138;5.216;2024-01-27T03:00:05;18.61;;;6.3;;
64018;SDS011;66942;52.138;5.216;2024-01-27T03:01:42;15.7;;;5.8;;
64018;SDS011;66942;52.138;5.216;2024-01-27T03:03:18;22.0;;;6.1;;
64018;SDS011;66942;52.138;5.216;2024-01-27T03:04:54;16.4;;;5.6;;
64018;SDS011;66942;52.138;5.216;2024-01-27T03:08:10;15.9;;;5.3;;
64018;SDS011;66942;52.138;5.216;2024-01-27T03:09:46;18.61;;;5.4;;
64018;SDS011;66942;52.138;5.216;2024-01-27T03:11:22;17.3;;;6.0;;
64018;SDS011;66942;52.138;5.216;2024-01-27T03:14:34;11.3;;;4.8;;
64018;SDS011;66942;52.138;5.216;2024-01-27T03:16:10;19.41;;;5.7;;
64018;SDS011;66942;52.138;5.216;2024-01-27T03:17:46;18.8;;;6.0;;
64018;SDS011;66942;52.138;5.216;2024-01-27T03:20:59;17.0;;;6.0;;
64018;SDS011;66942;52.138;5.216;2024-01-27T03:22:35;21.4;;;5.8;;
64018;SDS011;66942;52.138;5.216;2024-01-27T03:24:11;19.7;;;5.5;;
64018;SDS011;66942;52.138;5.216;2024-01-27T03:25:47;10.3;;;4.91;;
64018;SDS011;66942;52.138;5.216;2024-01-27T03:28:59;14.7;;;5.2;;
64018;SDS011;66942;52.138;5.216;2024-01-27T03:30:35;22.0;;;6.4;;
64018;SDS011;66942;52.138;5.216;2024-01-27T03:32:11;19.11;;;5.9;;
64018;SDS011;66942;52.138;5.216;2024-01-27T03:35:24;20.41;;;6.3;;
64018;SDS011;66942;52.138;5.216;2024-01-27T03:37:00;20.41;;;6.1;;
64018;SDS011;66942;52.138;5.216;2024-01-27T03:38:36;14.5;;;5.2;;
64018;SDS011;66942;52.138;5.216;2024-01-27T03:41:48;19.5;;;5.9;;
64018;SDS011;66942;52.138;5.216;2024-01-27T03:43:24;17.5;;;5.11;;
64018;SDS011;66942;52.138;5.216;2024-01-27T03:45:01;21.3;;;5.9;;
64018;SDS011;66942;52.138;5.216;2024-01-27T03:48:13;17.11;;;5.7;;
64018;SDS011;66942;52.138;5.216;2024-01-27T03:49:49;20.2;;;5.9;;
64018;SDS011;66942;52.138;5.216;2024-01-27T03:51:25;21.1;;;5.6;;
64018;SDS011;66942;52.138;5.216;2024-01-27T03:53:01;22.8;;;6.3;;
64018;SDS011;66942;52.138;5.216;2024-01-27T03:56:13;19.8;;;6.7;;
64018;SDS011;66942;52.138;5.216;2024-01-27T03:57:50;20.0;;;6.1;;
64018;SDS011;66942;52.138;5.216;2024-01-27T03:59:26;19.5;;;5.9;;
64018;SDS011;66942;52.138;5.216;2024-01-27T04:02:38;21.1;;;6.1;;
64018;SDS011;66942;52.138;5.216;2024-01-27T04:04:14;11.4;;;4.3;;
64018;SDS011;66942;52.138;5.216;2024-01-27T04:05:50;14.0;;;4.8;;
64018;SDS011;66942;52.138;5.216;2024-01-27T04:09:02;18.61;;;5.4;;
64018;SDS011;66942;52.138;5.216;2024-01-27T04:10:38;20.0;;;5.3;;
64018;SDS011;66942;52.138;5.216;2024-01-27T04:12:15;14.1;;;5.0;;
64018;SDS011;66942;52.138;5.216;2024-01-27T04:13:51;16.61;;;5.11;;
64018;SDS011;66942;52.138;5.216;2024-01-27T04:17:09;18.2;;;5.6;;
64018;SDS011;66942;52.138;5.216;2024-01-27T04:18:45;22.1;;;6.3;;
64018;SDS011;66942;52.138;5.216;2024-01-27T04:20:22;21.8;;;6.2;;
64018;SDS011;66942;52.138;5.216;2024-01-27T04:23:34;18.7;;;5.6;;
64018;SDS011;66942;52.138;5.216;2024-01-27T04:25:11;20.41;;;6.9;;
64018;SDS011;66942;52.138;5.216;2024-01-27T04:26:47;11.7;;;4.8;;
64018;SDS011;66942;52.138;5.216;2024-01-27T04:29:59;17.41;;;5.8;;
64018;SDS011;66942;52.138;5.216;2024-01-27T04:31:39;12.0;;;4.41;;
64018;SDS011;66942;52.138;5.216;2024-01-27T04:33:15;12.1;;;5.3;;
64018;SDS011;66942;52.138;5.216;2024-01-27T04:34:51;20.3;;;6.8;;
64018;SDS011;66942;52.138;5.216;2024-01-27T04:38:07;18.5;;;6.1;;
64018;SDS011;66942;52.138;5.216;2024-01-27T04:39:44;17.2;;;6.2;;
64018;SDS011;66942;52.138;5.216;2024-01-27T04:41:20;23.2;;;6.9;;
64018;SDS011;66942;52.138;5.216;2024-01-27T04:44:32;22.5;;;7.0;;
64018;SDS011;66942;52.138;5.216;2024-01-27T04:46:08;18.8;;;6.9;;
64018;SDS011;66942;52.138;5.216;2024-01-27T04:47:44;13.2;;;5.5;;
64018;SDS011;66942;52.138;5.216;2024-01-27T04:50:57;20.9;;;7.9;;
64018;SDS011;66942;52.138;5.216;2024-01-27T04:52:33;12.6;;;5.9;;
64018;SDS011;66942;52.138;5.216;2024-01-27T04:54:09;24.2;;;7.0;;
64018;SDS011;66942;52.138;5.216;2024-01-27T04:55:45;24.3;;;8.31;;
64018;SDS011;66942;52.138;5.216;2024-01-27T04:58:57;23.1;;;7.9;;
64018;SDS011;66942;52.138;5.216;2024-01-27T05:00:36;21.1;;;8.5;;
64018;SDS011;66942;52.138;5.216;2024-01-27T05:02:12;14.6;;;6.8;;
64018;SDS011;66942;52.138;5.216;2024-01-27T05:05:25;22.2;;;8.1;;
64018;SDS011;66942;52.138;5.216;2024-01-27T05:07:01;21.3;;;8.1;;
64018;SDS011;66942;52.138;5.216;2024-01-27T05:08:37;24.7;;;9.31;;
64018;SDS011;66942;52.138;5.216;2024-01-27T05:11:54;13.4;;;7.0;;
64018;SDS011;66942;52.138;5.216;2024-01-27T05:13:30;25.5;;;10.21;;
64018;SDS011;66942;52.138;5.216;2024-01-27T05:15:07;18.3;;;8.71;;
64018;SDS011;66942;52.138;5.216;2024-01-27T05:16:43;20.6;;;9.0;;
64018;SDS011;66942;52.138;5.216;2024-01-27T05:19:56;16.2;;;7.6;;
64018;SDS011;66942;52.138;5.216;2024-01-27T05:21:32;18.11;;;9.0;;
64018;SDS011;66942;52.138;5.216;2024-01-27T05:23:12;24.3;;;10.9;;
64018;SDS011;66942;52.138;5.216;2024-01-27T05:26:24;25.7;;;11.5;;
64018;SDS011;66942;52.138;5.216;2024-01-27T05:28:00;33.0;;;13.4;;
64018;SDS011;66942;52.138;5.216;2024-01-27T05:29:37;23.5;;;10.3;;
64018;SDS011;66942;52.138;5.216;2024-01-27T05:32:49;30.7;;;14.1;;
64018;SDS011;66942;52.138;5.216;2024-01-27T05:34:26;19.7;;;10.6;;
64018;SDS011;66942;52.138;5.216;2024-01-27T05:36:02;28.3;;;13.8;;
64018;SDS011;66942;52.138;5.216;2024-01-27T05:37:38;19.41;;;10.3;;
64018;SDS011;66942;52.138;5.216;2024-01-27T05:40:50;29.3;;;13.2;;
64018;SDS011;66942;52.138;5.216;2024-01-27T05:42:26;26.6;;;13.2;;
64018;SDS011;66942;52.138;5.216;2024-01-27T05:44:02;24.6;;;13.0;;
64018;SDS011;66942;52.138;5.216;2024-01-27T05:47:14;25.0;;;12.4;;
64018;SDS011;66942;52.138;5.216;2024-01-27T05:48:51;32.8;;;16.4;;
64018;SDS011;66942;52.138;5.216;2024-01-27T05:50:28;16.4;;;10.0;;
64018;SDS011;66942;52.138;5.216;2024-01-27T05:53:41;25.9;;;13.1;;
64018;SDS011;66942;52.138;5.216;2024-01-27T05:55:17;29.2;;;14.1;;
64018;SDS011;66942;52.138;5.216;2024-01-27T05:56:53;15.4;;;9.6;;
64018;SDS011;66942;52.138;5.216;2024-01-27T05:58:29;22.7;;;12.1;;
64018;SDS011;66942;52.138;5.216;2024-01-27T06:01:43;25.0;;;12.1;;
64018;SDS011;66942;52.138;5.216;2024-01-27T06:03:20;15.4;;;10.1;;
64018;SDS011;66942;52.138;5.216;2024-01-27T06:04:56;25.5;;;12.3;;
64018;SDS011;66942;52.138;5.216;2024-01-27T06:08:08;25.0;;;13.0;;
64018;SDS011;66942;52.138;5.216;2024-01-27T06:09:44;25.2;;;13.4;;
64018;SDS011;66942;52.138;5.216;2024-01-27T06:11:24;30.1;;;16.0;;
64018;SDS011;66942;52.138;5.216;2024-01-27T06:14:36;28.5;;;16.2;;
64018;SDS011;66942;52.138;5.216;2024-01-27T06:16:12;33.71;;;19.0;;
64018;SDS011;66942;52.138;5.216;2024-01-27T06:17:48;28.9;;;16.11;;
64018;SDS011;66942;52.138;5.216;2024-01-27T06:19:25;30.8;;;18.2;;
64018;SDS011;66942;52.138;5.216;2024-01-27T06:22:38;26.5;;;14.1;;
64018;SDS011;66942;52.138;5.216;2024-01-27T06:24:14;22.8;;;14.1;;
64018;SDS011;66942;52.138;5.216;2024-01-27T06:25:50;41.1;;;20.11;;
64018;SDS011;66942;52.138;5.216;2024-01-27T06:29:02;33.21;;;18.7;;
64018;SDS011;66942;52.138;5.216;2024-01-27T06:30:38;33.21;;;17.7;;
64018;SDS011;66942;52.138;5.216;2024-01-27T06:32:14;24.2;;;14.8;;
64018;SDS011;66942;52.138;5.216;2024-01-27T06:35:27;31.5;;;19.11;;
64018;SDS011;66942;52.138;5.216;2024-01-27T06:37:03;28.9;;;16.9;;
64018;SDS011;66942;52.138;5.216;2024-01-27T06:38:39;34.0;;;17.8;;
64018;SDS011;66942;52.138;5.216;2024-01-27T06:41:55;19.7;;;11.6;;
64018;SDS011;66942;52.138;5.216;2024-01-27T06:43:31;33.6;;;18.41;;
64018;SDS011;66942;52.138;5.216;2024-01-27T06:45:07;36.4;;;19.5;;
64018;SDS011;66942;52.138;5.216;2024-01-27T06:46:43;31.3;;;18.61;;
64018;SDS011;66942;52.138;5.216;2024-01-27T06:49:56;34.1;;;18.7;;
64018;SDS011;66942;52.138;5.216;2024-01-27T06:51:32;16.9;;;12.3;;
64018;SDS011;66942;52.138;5.216;2024-01-27T06:53:08;32.21;;;17.5;;
64018;SDS011;66942;52.138;5.216;2024-01-27T06:56:20;35.9;;;19.7;;
64018;SDS011;66942;52.138;5.216;2024-01-27T06:57:56;31.3;;;19.7;;
64018;SDS011;66942;52.138;5.216;2024-01-27T06:59:32;37.9;;;20.7;;
64018;SDS011;66942;52.138;5.216;2024-01-27T07:02:44;25.7;;;15.4;;
64018;SDS011;66942;52.138;5.216;2024-01-27T07:04:21;32.21;;;19.7;;
64018;SDS011;66942;52.138;5.216;2024-01-27T07:05:59;40.6;;;22.0;;
64018;SDS011;66942;52.138;5.216;2024-01-27T07:07:35;38.0;;;21.6;;
64018;SDS011;66942;52.138;5.216;2024-01-27T07:10:47;36.5;;;20.5;;
64018;SDS011;66942;52.138;5.216;2024-01-27T07:12:23;44.4;;;26.5;;
64018;SDS011;66942;52.138;5.216;2024-01-27T07:14:00;32.71;;;19.0;;
64018;SDS011;66942;52.138;5.216;2024-01-27T07:17:13;22.5;;;14.8;;
64018;SDS011;66942;52.138;5.216;2024-01-27T07:18:49;19.41;;;13.5;;
64018;SDS011;66942;52.138;5.216;2024-01-27T07:20:26;29.9;;;17.2;;
64018;SDS011;66942;52.138;5.216;2024-01-27T07:23:38;32.3;;;17.5;;
64018;SDS011;66942;52.138;5.216;2024-01-27T07:25:14;27.5;;;16.9;;
64018;SDS011;66942;52.138;5.216;2024-01-27T07:26:50;27.5;;;16.9;;
64018;SDS011;66942;52.138;5.216;2024-01-27T07:28:26;31.0;;;20.2;;
64018;SDS011;66942;52.138;5.216;2024-01-27T07:31:38;30.0;;;19.3;;
64018;SDS011;66942;52.138;5.216;2024-01-27T07:33:14;40.71;;;26.0;;
64018;SDS011;66942;52.138;5.216;2024-01-27T07:34:51;21.6;;;17.41;;
64018;SDS011;66942;52.138;5.216;2024-01-27T07:38:03;21.9;;;15.0;;
64018;SDS011;66942;52.138;5.216;2024-01-27T07:39:39;31.6;;;18.3;;
64018;SDS011;66942;52.138;5.216;2024-01-27T07:41:16;22.5;;;16.11;;
64018;SDS011;66942;52.138;5.216;2024-01-27T07:44:28;25.2;;;16.11;;
64018;SDS011;66942;52.138;5.216;2024-01-27T07:46:05;32.9;;;19.91;;
64018;SDS011;66942;52.138;5.216;2024-01-27T07:47:41;25.8;;;15.1;;
64018;SDS011;66942;52.138;5.216;2024-01-27T07:50:54;36.81;;;22.8;;
64018;SDS011;66942;52.138;5.216;2024-01-27T07:52:30;27.4;;;16.7;;
64018;SDS011;66942;52.138;5.216;2024-01-27T07:54:06;26.0;;;17.61;;
64018;SDS011;66942;52.138;5.216;2024-01-27T07:55:42;28.6;;;18.41;;
64018;SDS011;66942;52.138;5.216;2024-01-27T07:58:54;19.3;;;13.3;;
64018;SDS011;66942;52.138;5.216;2024-01-27T08:00:30;29.9;;;20.7;;
64018;SDS011;66942;52.138;5.216;2024-01-27T08:02:06;29.1;;;16.5;;
64018;SDS011;66942;52.138;5.216;2024-01-27T08:05:19;22.0;;;14.4;;
64018;SDS011;66942;52.138;5.216;2024-01-27T08:06:55;27.5;;;16.9;;
64018;SDS011;66942;52.138;5.216;2024-01-27T08:08:31;30.2;;;20.11;;
64018;SDS011;66942;52.138;5.216;2024-01-27T08:11:43;28.8;;;19.41;;
64018;SDS011;66942;52.138;5.216;2024-01-27T08:13:19;25.1;;;16.4;;
64018;SDS011;66942;52.138;5.216;2024-01-27T08:14:55;18.91;;;12.9;;
64018;SDS011;66942;52.138;5.216;2024-01-27T08:16:31;22.1;;;16.0;;
64018;SDS011;66942;52.138;5.216;2024-01-27T08:19:44;31.9;;;21.8;;
64018;SDS011;66942;52.138;5.216;2024-01-27T08:21:20;19.41;;;13.8;;
64018;SDS011;66942;52.138;5.216;2024-01-27T08:22:56;28.2;;;17.2;;
64018;SDS011;66942;52.138;5.216;2024-01-27T08:26:08;27.8;;;18.11;;
64018;SDS011;66942;52.138;5.216;2024-01-27T08:27:44;26.6;;;18.3;;
64018;SDS011;66942;52.138;5.216;2024-01-27T08:29:20;31.5;;;20.6;;
64018;SDS011;66942;52.138;5.216;2024-01-27T08:32:32;28.8;;;20.2;;
64018;SDS011;66942;52.138;5.216;2024-01-27T08:34:09;22.5;;;15.2;;
64018;SDS011;66942;52.138;5.216;2024-01-27T08:35:46;28.1;;;20.8;;
64018;SDS011;66942;52.138;5.216;2024-01-27T08:38:58;25.8;;;17.61;;
64018;SDS011;66942;52.138;5.216;2024-01-27T08:40:34;26.8;;;20.2;;
64018;SDS011;66942;52.138;5.216;2024-01-27T08:42:11;27.9;;;21.0;;
64018;SDS011;66942;52.138;5.216;2024-01-27T08:43:47;18.0;;;13.6;;
64018;SDS011;66942;52.138;5.216;2024-01-27T08:47:00;27.1;;;19.2;;
64018;SDS011;66942;52.138;5.216;2024-01-27T08:48:36;28.2;;;19.61;;
64018;SDS011;66942;52.138;5.216;2024-01-27T08:50:12;20.41;;;16.4;;
64018;SDS011;66942;52.138;5.216;2024-01-27T08:53:24;31.3;;;21.0;;
64018;SDS011;66942;52.138;5.216;2024-01-27T08:55:00;27.6;;;18.2;;
64018;SDS011;66942;52.138;5.216;2024-01-27T08:56:38;36.21;;;24.2;;
64018;SDS011;66942;52.138;5.216;2024-01-27T08:59:51;34.4;;;23.0;;
64018;SDS011;66942;52.138;5.216;2024-01-27T09:01:28;21.7;;;16.11;;
64018;SDS011;66942;52.138;5.216;2024-01-27T09:03:04;20.0;;;15.9;;
64018;SDS011;66942;52.138;5.216;2024-01-27T09:04:40;25.4;;;18.2;;
64018;SDS011;66942;52.138;5.216;2024-01-27T09:07:52;24.5;;;16.8;;
64018;SDS011;66942;52.138;5.216;2024-01-27T09:09:28;22.7;;;16.3;;
64018;SDS011;66942;52.138;5.216;2024-01-27T09:11:04;23.3;;;20.2;;
64018;SDS011;66942;52.138;5.216;2024-01-27T09:14:17;19.11;;;15.1;;
64018;SDS011;66942;52.138;5.216;2024-01-27T09:15:53;20.11;;;17.5;;
64018;SDS011;66942;52.138;5.216;2024-01-27T09:17:31;25.9;;;16.5;;
64018;SDS011;66942;52.138;5.216;2024-01-27T09:20:46;27.0;;;19.2;;
64018;SDS011;66942;52.138;5.216;2024-01-27T09:22:22;18.5;;;14.5;;
64018;SDS011;66942;52.138;5.216;2024-01-27T09:23:58;25.0;;;17.41;;
64018;SDS011;66942;52.138;5.216;2024-01-27T09:25:34;27.9;;;17.11;;
64018;SDS011;66942;52.138;5.216;2024-01-27T09:28:46;25.4;;;17.11;;
64018;SDS011;66942;52.138;5.216;2024-01-27T09:30:22;21.7;;;15.8;;
64018;SDS011;66942;52.138;5.216;2024-01-27T09:31:59;30.2;;;21.0;;
64018;SDS011;66942;52.138;5.216;2024-01-27T09:35:11;35.81;;;21.7;;
64018;SDS011;66942;52.138;5.216;2024-01-27T09:36:47;28.2;;;18.41;;
64018;SDS011;66942;52.138;5.216;2024-01-27T09:38:23;29.7;;;20.6;;
64018;SDS011;66942;52.138;5.216;2024-01-27T09:41:35;30.2;;;19.0;;
64018;SDS011;66942;52.138;5.216;2024-01-27T09:43:12;31.5;;;18.61;;
64018;SDS011;66942;52.138;5.216;2024-01-27T09:44:49;27.1;;;16.2;;
64018;SDS011;66942;52.138;5.216;2024-01-27T09:46:29;27.8;;;16.61;;
64018;SDS011;66942;52.138;5.216;2024-01-27T09:49:46;30.6;;;18.2;;
64018;SDS011;66942;52.138;5.216;2024-01-27T09:51:24;26.7;;;16.2;;
64018;SDS011;66942;52.138;5.216;2024-01-27T09:53:05;29.7;;;18.5;;
64018;SDS011;66942;52.138;5.216;2024-01-27T09:56:17;33.71;;;18.11;;
64018;SDS011;66942;52.138;5.216;2024-01-27T09:57:53;30.3;;;16.8;;
64018;SDS011;66942;52.138;5.216;2024-01-27T09:59:29;23.4;;;14.0;;
64018;SDS011;66942;52.138;5.216;2024-01-27T10:01:08;24.2;;;14.1;;
64018;SDS011;66942;52.138;5.216;2024-01-27T10:04:25;25.8;;;16.0;;
64018;SDS011;66942;52.138;5.216;2024-01-27T10:06:02;24.6;;;15.9;;
64018;SDS011;66942;52.138;5.216;2024-01-27T10:07:39;24.4;;;12.7;;
64018;SDS011;66942;52.138;5.216;2024-01-27T10:10:53;24.0;;;13.9;;
64018;SDS011;66942;52.138;5.216;2024-01-27T10:12:30;20.7;;;12.5;;
64018;SDS011;66942;52.138;5.216;2024-01-27T10:14:07;20.41;;;12.5;;
64018;SDS011;66942;52.138;5.216;2024-01-27T10:17:20;21.8;;;11.8;;
64018;SDS011;66942;52.138;5.216;2024-01-27T10:18:59;21.7;;;12.2;;
64018;SDS011;66942;52.138;5.216;2024-01-27T10:20:36;24.5;;;12.9;;
64018;SDS011;66942;52.138;5.216;2024-01-27T10:22:12;20.6;;;11.7;;
64018;SDS011;66942;52.138;5.216;2024-01-27T10:25:24;22.1;;;11.4;;
64018;SDS011;66942;52.138;5.216;2024-01-27T10:27:00;21.6;;;11.8;;
64018;SDS011;66942;52.138;5.216;2024-01-27T10:28:36;25.9;;;12.4;;
64018;SDS011;66942;52.138;5.216;2024-01-27T10:31:53;20.7;;;12.0;;
64018;SDS011;66942;52.138;5.216;2024-01-27T10:33:29;21.1;;;11.8;;
64018;SDS011;66942;52.138;5.216;2024-01-27T10:35:05;25.0;;;11.8;;
64018;SDS011;66942;52.138;5.216;2024-01-27T10:36:43;17.7;;;11.5;;
64018;SDS011;66942;52.138;5.216;2024-01-27T10:40:00;25.6;;;12.0;;
64018;SDS011;66942;52.138;5.216;2024-01-27T10:41:37;22.2;;;11.8;;
64018;SDS011;66942;52.138;5.216;2024-01-27T10:43:14;20.8;;;11.2;;
64018;SDS011;66942;52.138;5.216;2024-01-27T10:46:32;23.1;;;12.0;;
64018;SDS011;66942;52.138;5.216;2024-01-27T10:48:09;22.9;;;11.5;;
64018;SDS011;66942;52.138;5.216;2024-01-27T10:49:46;22.0;;;11.5;;
64018;SDS011;66942;52.138;5.216;2024-01-27T10:51:26;19.11;;;11.3;;
64018;SDS011;66942;52.138;5.216;2024-01-27T10:54:51;21.6;;;11.0;;
64018;SDS011;66942;52.138;5.216;2024-01-27T10:56:29;25.1;;;12.1;;
64018;SDS011;66942;52.138;5.216;2024-01-27T10:58:07;20.2;;;11.5;;
64018;SDS011;66942;52.138;5.216;2024-01-27T10:59:44;21.5;;;11.7;;
64018;SDS011;66942;52.138;5.216;2024-01-27T11:03:01;19.5;;;11.4;;
64018;SDS011;66942;52.138;5.216;2024-01-27T11:04:38;21.2;;;12.0;;
64018;SDS011;66942;52.138;5.216;2024-01-27T11:06:14;18.2;;;10.5;;
64018;SDS011;66942;52.138;5.216;2024-01-27T11:09:27;23.7;;;11.4;;
64018;SDS011;66942;52.138;5.216;2024-01-27T11:11:05;21.3;;;11.5;;
64018;SDS011;66942;52.138;5.216;2024-01-27T11:12:41;21.6;;;11.6;;
64018;SDS011;66942;52.138;5.216;2024-01-27T11:15:53;17.8;;;10.6;;
64018;SDS011;66942;52.138;5.216;2024-01-27T11:17:37;17.5;;;10.3;;
64018;SDS011;66942;52.138;5.216;2024-01-27T11:19:14;19.7;;;10.5;;
64018;SDS011;66942;52.138;5.216;2024-01-27T11:20:53;19.8;;;10.1;;
64018;SDS011;66942;52.138;5.216;2024-01-27T11:24:13;16.5;;;9.9;;
64018;SDS011;66942;52.138;5.216;2024-01-27T11:25:50;18.11;;;10.0;;
64018;SDS011;66942;52.138;5.216;2024-01-27T11:27:38;19.61;;;10.3;;
64018;SDS011;66942;52.138;5.216;2024-01-27T11:29:15;17.91;;;9.81;;
64018;SDS011;66942;52.138;5.216;2024-01-27T11:32:30;17.91;;;9.81;;
64018;SDS011;66942;52.138;5.216;2024-01-27T11:34:11;19.2;;;10.0;;
64018;SDS011;66942;52.138;5.216;2024-01-27T11:35:47;17.0;;;9.31;;
64018;SDS011;66942;52.138;5.216;2024-01-27T11:37:24;15.1;;;9.1;;
64018;SDS011;66942;52.138;5.216;2024-01-27T11:40:59;17.41;;;9.0;;
64018;SDS011;66942;52.138;5.216;2024-01-27T11:42:36;18.41;;;9.0;;
64018;SDS011;66942;52.138;5.216;2024-01-27T11:44:12;16.0;;;8.5;;
64018;SDS011;66942;52.138;5.216;2024-01-27T11:45:56;18.61;;;8.4;;
64018;SDS011;66942;52.138;5.216;2024-01-27T11:49:09;17.5;;;7.9;;
64018;SDS011;66942;52.138;5.216;2024-01-27T11:51:01;16.0;;;8.1;;
64018;SDS011;66942;52.138;5.216;2024-01-27T11:52:39;14.6;;;8.0;;
64018;SDS011;66942;52.138;5.216;2024-01-27T11:54:15;17.11;;;8.5;;
64018;SDS011;66942;52.138;5.216;2024-01-27T11:57:30;14.9;;;8.0;;
64018;SDS011;66942;52.138;5.216;2024-01-27T11:59:06;14.9;;;8.0;;
64018;SDS011;66942;52.138;5.216;2024-01-27T12:00:42;17.0;;;7.6;;
64018;SDS011;66942;52.138;5.216;2024-01-27T12:03:54;15.1;;;7.8;;
64018;SDS011;66942;52.138;5.216;2024-01-27T12:05:31;20.2;;;8.9;;
64018;SDS011;66942;52.138;5.216;2024-01-27T12:07:07;19.0;;;8.2;;
64018;SDS011;66942;52.138;5.216;2024-01-27T12:10:20;17.2;;;8.1;;
64018;SDS011;66942;52.138;5.216;2024-01-27T12:11:56;17.8;;;7.8;;
64018;SDS011;66942;52.138;5.216;2024-01-27T12:13:32;16.7;;;7.5;;
64018;SDS011;66942;52.138;5.216;2024-01-27T12:15:08;18.5;;;7.9;;
64018;SDS011;66942;52.138;5.216;2024-01-27T12:18:20;18.41;;;8.2;;
64018;SDS011;66942;52.138;5.216;2024-01-27T12:19:56;15.2;;;7.6;;
64018;SDS011;66942;52.138;5.216;2024-01-27T12:21:33;16.2;;;8.2;;
64018;SDS011;66942;52.138;5.216;2024-01-27T12:24:45;17.61;;;8.31;;
64018;SDS011;66942;52.138;5.216;2024-01-27T12:26:21;16.4;;;8.1;;
64018;SDS011;66942;52.138;5.216;2024-01-27T12:28:01;16.4;;;7.7;;
64018;SDS011;66942;52.138;5.216;2024-01-27T12:29:40;16.3;;;8.0;;
64018;SDS011;66942;52.138;5.216;2024-01-27T12:32:53;14.8;;;7.7;;
64018;SDS011;66942;52.138;5.216;2024-01-27T12:34:29;16.2;;;8.4;;
64018;SDS011;66942;52.138;5.216;2024-01-27T12:36:07;17.7;;;7.8;;
64018;SDS011;66942;52.138;5.216;2024-01-27T12:39:20;16.61;;;7.2;;